Time;durP1;ratioP1;P1;durP2;ratioP2;P2;SDS_P1;SDS_P2;PMS_P1;PMS_P2;Temp;Humidity;BMP_temperature;BMP_pressure;BME280_temperature;BME280_humidity;BME280_pressure;Samples;Min_cycle;Max_cycle;Signal;HPM_P1;HPM_P2
2023/06/09 00:02:18;;;;;;;7.77;5.80;;;;;;;;;;6138472;23;20416;-93
2023/06/09 00:04:45;;;;;;;8.10;6.00;;;;;;;;;;6139738;23;20755;-92
2023/06/09 00:07:15;;;;;;;10.20;6.37;;;;;;;;;;6139866;23;20388;-93
2023/06/09 00:09:41;;;;;;;7.93;5.93;;;;;;;;;;6141798;23;20384;-93
2023/06/09 00:12:12;;;;;;;7.43;6.30;;;;;;;;;;6141924;23;20384;-93
2023/06/09 00:14:38;;;;;;;8.40;5.97;;;;;;;;;;6140722;23;20458;-93
2023/06/09 00:17:07;;;;;;;8.07;7.30;;;;;;;;;;6141570;23;20869;-92
2023/06/09 00:19:34;;;;;;;6.20;5.60;;;;;;;;;;6144764;23;20809;-93
2023/06/09 00:22:01;;;;;;;7.17;5.97;;;;;;;;;;6139229;23;20430;-92
2023/06/09 00:24:30;;;;;;;7.73;7.03;;;;;;;;;;6137851;23;20390;-93
2023/06/09 00:26:56;;;;;;;7.97;6.80;;;;;;;;;;6136835;23;20726;-92
2023/06/09 00:29:28;;;;;;;8.80;7.40;;;;;;;;;;6140890;23;20384;-92
2023/06/09 00:31:54;;;;;;;8.30;7.47;;;;;;;;;;6139245;23;20387;-93
2023/06/09 00:34:26;;;;;;;10.00;6.20;;;;;;;;;;6136576;23;20411;-93
2023/06/09 00:36:52;;;;;;;8.03;6.43;;;;;;;;;;6139778;23;20460;-92
2023/06/09 00:39:18;;;;;;;10.30;7.67;;;;;;;;;;6138264;23;20384;-93
2023/06/09 00:41:47;;;;;;;7.73;6.10;;;;;;;;;;6138523;23;20405;-92
2023/06/09 00:44:16;;;;;;;8.20;6.30;;;;;;;;;;6137382;23;20395;-93
2023/06/09 00:46:42;;;;;;;8.73;6.53;;;;;;;;;;6139673;23;20419;-93
2023/06/09 00:49:11;;;;;;;10.43;7.33;;;;;;;;;;6138376;23;20391;-92
2023/06/09 00:51:37;;;;;;;8.27;6.33;;;;;;;;;;6138230;23;20384;-93
2023/06/09 00:54:03;;;;;;;8.00;7.20;;;;;;;;;;6136714;23;20423;-93
2023/06/09 00:56:31;;;;;;;7.23;6.40;;;;;;;;;;6137200;23;20380;-93
2023/06/09 00:58:57;;;;;;;8.70;7.63;;;;;;;;;;6138832;23;20493;-93
2023/06/09 01:01:23;;;;;;;7.67;6.57;;;;;;;;;;6139341;23;20372;-93
2023/06/09 01:03:50;;;;;;;6.80;6.10;;;;;;;;;;6138473;23;20391;-93
2023/06/09 01:06:26;;;;;;;7.90;6.17;;;;;;;;;;6142590;23;20380;-93
2023/06/09 01:08:59;;;;;;;6.77;6.17;;;;;;;;;;6140810;23;20384;-93
2023/06/09 01:11:25;;;;;;;8.50;6.70;;;;;;;;;;6140302;23;20419;-93
2023/06/09 01:14:02;;;;;;;8.43;6.70;;;;;;;;;;6162107;23;20432;-92
2023/06/09 01:16:30;;;;;;;7.23;6.03;;;;;;;;;;6138681;23;20761;-92
2023/06/09 01:18:56;;;;;;;7.43;6.73;;;;;;;;;;6138256;23;20870;-93
2023/06/09 01:21:41;;;;;;;8.43;7.03;;;;;;;;;;6138990;23;20392;-93
2023/06/09 01:24:23;;;;;;;8.23;6.37;;;;;;;;;;6162878;23;20748;-93
2023/06/09 01:26:50;;;;;;;9.30;6.40;;;;;;;;;;6163411;23;20447;-92
2023/06/09 01:29:16;;;;;;;9.00;6.30;;;;;;;;;;6138748;23;20438;-92
2023/06/09 01:31:46;;;;;;;9.33;7.47;;;;;;;;;;6138212;23;20392;-93
2023/06/09 01:34:12;;;;;;;10.70;6.40;;;;;;;;;;6136263;23;20436;-92
2023/06/09 01:36:38;;;;;;;8.13;6.57;;;;;;;;;;6142419;23;20384;-93
2023/06/09 01:39:05;;;;;;;7.60;6.80;;;;;;;;;;6136832;23;20890;-93
2023/06/09 01:41:31;;;;;;;8.10;6.00;;;;;;;;;;6139378;23;20380;-93
2023/06/09 01:43:57;;;;;;;7.47;5.80;;;;;;;;;;6137531;23;20396;-92
2023/06/09 01:46:26;;;;;;;7.33;6.50;;;;;;;;;;6138365;23;20407;-92
2023/06/09 01:49:07;;;;;;;7.03;6.27;;;;;;;;;;6138083;23;20415;-93
2023/06/09 01:52:06;;;;;;;8.47;7.10;;;;;;;;;;6163077;23;21160;-92
2023/06/09 01:54:36;;;;;;;7.77;6.47;;;;;;;;;;6083745;23;20431;-93
2023/06/09 01:57:28;;;;;;;9.50;6.03;;;;;;;;;;6138768;23;20384;-93
2023/06/09 01:59:54;;;;;;;8.90;7.20;;;;;;;;;;6107035;23;20446;-93
2023/06/09 02:02:21;;;;;;;7.90;5.90;;;;;;;;;;6136971;23;20423;-92
2023/06/09 02:04:48;;;;;;;14.07;7.30;;;;;;;;;;6138326;23;20439;-92
2023/06/09 02:07:16;;;;;;;9.33;6.87;;;;;;;;;;6139279;23;20938;-92
2023/06/09 02:09:43;;;;;;;10.93;6.40;;;;;;;;;;6137105;23;20380;-93
2023/06/09 02:12:09;;;;;;;8.90;6.53;;;;;;;;;;6139002;23;20593;-93
2023/06/09 02:14:35;;;;;;;9.03;6.90;;;;;;;;;;6139334;23;20934;-93
2023/06/09 02:17:02;;;;;;;7.77;6.63;;;;;;;;;;6139141;23;20498;-92
2023/06/09 02:19:37;;;;;;;10.27;7.70;;;;;;;;;;6140496;23;20387;-92
2023/06/09 02:22:03;;;;;;;9.10;7.63;;;;;;;;;;6141578;23;20435;-92
2023/06/09 02:24:29;;;;;;;7.07;6.07;;;;;;;;;;6139103;23;20376;-92
2023/06/09 02:26:58;;;;;;;9.03;7.70;;;;;;;;;;6139357;23;20676;-92
2023/06/09 02:29:25;;;;;;;8.87;7.40;;;;;;;;;;6141281;23;20388;-93
2023/06/09 02:31:51;;;;;;;8.23;6.70;;;;;;;;;;6141942;23;20384;-93
2023/06/09 02:34:19;;;;;;;8.17;7.10;;;;;;;;;;6139911;23;20451;-92
2023/06/09 02:36:47;;;;;;;8.60;7.60;;;;;;;;;;6144856;23;20376;-93
2023/06/09 02:39:14;;;;;;;9.67;7.07;;;;;;;;;;6143097;23;20451;-93
2023/06/09 02:41:40;;;;;;;9.23;7.97;;;;;;;;;;6143430;23;20380;-93
2023/06/09 02:44:06;;;;;;;10.93;7.73;;;;;;;;;;6141710;23;20387;-93
2023/06/09 02:46:33;;;;;;;9.70;7.10;;;;;;;;;;6141697;23;20477;-93
2023/06/09 02:48:59;;;;;;;9.20;7.07;;;;;;;;;;6167489;23;21095;-93
2023/06/09 02:51:29;;;;;;;10.83;7.10;;;;;;;;;;6168551;23;20584;-93
2023/06/09 02:53:58;;;;;;;8.70;7.20;;;;;;;;;;6141217;23;20423;-93
2023/06/09 02:56:27;;;;;;;10.97;8.00;;;;;;;;;;6141762;23;20749;-92
2023/06/09 02:58:53;;;;;;;7.00;6.30;;;;;;;;;;6141221;23;20415;-92
2023/06/09 03:01:20;;;;;;;10.83;6.90;;;;;;;;;;6142836;23;20873;-92
2023/06/09 03:03:49;;;;;;;8.83;6.77;;;;;;;;;;6140902;23;20676;-92
2023/06/09 03:06:16;;;;;;;10.80;8.10;;;;;;;;;;6141106;23;20383;-92
2023/06/09 03:08:43;;;;;;;10.50;8.07;;;;;;;;;;6141883;23;20864;-92
2023/06/09 03:11:09;;;;;;;11.10;7.87;;;;;;;;;;6148051;23;20392;-93
2023/06/09 03:13:35;;;;;;;10.13;7.20;;;;;;;;;;6141552;23;20430;-92
2023/06/09 03:16:02;;;;;;;8.83;7.83;;;;;;;;;;6142228;23;20400;-92
2023/06/09 03:18:29;;;;;;;12.80;7.77;;;;;;;;;;6142947;23;20403;-93
2023/06/09 03:20:55;;;;;;;8.93;7.50;;;;;;;;;;6141290;23;20367;-92
2023/06/09 03:23:21;;;;;;;10.90;8.00;;;;;;;;;;6140090;23;20392;-92
2023/06/09 03:25:51;;;;;;;11.70;8.37;;;;;;;;;;6138830;23;20396;-93
2023/06/09 03:28:17;;;;;;;8.13;7.33;;;;;;;;;;6141157;23;20457;-92
2023/06/09 03:30:43;;;;;;;10.67;8.10;;;;;;;;;;6141968;23;20780;-92
2023/06/09 03:33:11;;;;;;;9.23;8.20;;;;;;;;;;6143203;23;20380;-92
2023/06/09 03:35:37;;;;;;;9.07;8.27;;;;;;;;;;6140557;23;21212;-92
2023/06/09 03:38:03;;;;;;;8.23;7.00;;;;;;;;;;6142123;23;20386;-92
2023/06/09 03:40:30;;;;;;;10.50;7.87;;;;;;;;;;6142418;23;20418;-92
2023/06/09 03:43:10;;;;;;;8.00;7.20;;;;;;;;;;6196206;23;20369;-92
2023/06/09 03:45:44;;;;;;;9.63;6.60;;;;;;;;;;6142431;23;20407;-91
2023/06/09 03:48:16;;;;;;;11.17;7.57;;;;;;;;;;6143396;23;20756;-92
2023/06/09 03:50:45;;;;;;;8.97;8.00;;;;;;;;;;6141886;23;20771;-92
2023/06/09 03:53:11;;;;;;;8.80;7.50;;;;;;;;;;6143871;23;20450;-92
2023/06/09 03:55:38;;;;;;;11.03;8.10;;;;;;;;;;6143340;23;20411;-93
2023/06/09 03:58:04;;;;;;;10.50;8.77;;;;;;;;;;6142933;23;20435;-92
2023/06/09 04:00:30;;;;;;;10.73;8.20;;;;;;;;;;6143313;23;20404;-92
2023/06/09 04:02:56;;;;;;;9.40;7.80;;;;;;;;;;6143339;23;20384;-92
2023/06/09 04:05:22;;;;;;;10.10;8.73;;;;;;;;;;6141639;23;20487;-92
2023/06/09 04:07:48;;;;;;;10.93;8.17;;;;;;;;;;6139543;23;20380;-93
2023/06/09 04:10:14;;;;;;;10.80;7.37;;;;;;;;;;6139554;23;20699;-92
2023/06/09 04:12:41;;;;;;;10.27;8.67;;;;;;;;;;6143667;23;20415;-93
2023/06/09 04:15:08;;;;;;;11.87;9.30;;;;;;;;;;6137777;23;20415;-92
2023/06/09 04:17:36;;;;;;;8.50;7.73;;;;;;;;;;6139775;23;20471;-92
2023/06/09 04:20:04;;;;;;;13.13;7.50;;;;;;;;;;6139198;23;20384;-92
2023/06/09 04:22:30;;;;;;;13.20;9.07;;;;;;;;;;6165044;23;20372;-92
2023/06/09 04:24:59;;;;;;;8.70;7.80;;;;;;;;;;6138792;23;20488;-92
2023/06/09 04:27:30;;;;;;;10.80;8.50;;;;;;;;;;6140958;23;20438;-93
2023/06/09 04:29:57;;;;;;;9.80;7.50;;;;;;;;;;6141879;23;20380;-92
2023/06/09 04:32:23;;;;;;;9.13;7.20;;;;;;;;;;6141430;23;20376;-93
2023/06/09 04:34:57;;;;;;;9.20;8.00;;;;;;;;;;6141228;23;20419;-92
2023/06/09 04:37:25;;;;;;;9.07;7.70;;;;;;;;;;6141738;23;20395;-92
2023/06/09 04:39:50;;;;;;;9.97;8.97;;;;;;;;;;6167026;23;20372;-92
2023/06/09 04:42:19;;;;;;;10.40;8.27;;;;;;;;;;6142194;23;20370;-93
2023/06/09 04:44:49;;;;;;;9.80;8.50;;;;;;;;;;6140561;23;20705;-92
2023/06/09 04:47:18;;;;;;;10.17;8.17;;;;;;;;;;6169025;23;20368;-92
2023/06/09 04:49:46;;;;;;;11.60;9.30;;;;;;;;;;6141288;23;20387;-93
2023/06/09 04:52:12;;;;;;;12.00;9.00;;;;;;;;;;6142121;23;20372;-93
2023/06/09 04:54:42;;;;;;;10.17;8.90;;;;;;;;;;6140502;23;20416;-92
2023/06/09 04:57:17;;;;;;;11.40;9.43;;;;;;;;;;6142396;23;20384;-92
2023/06/09 04:59:45;;;;;;;9.00;8.10;;;;;;;;;;6141086;23;20786;-91
2023/06/09 05:02:11;;;;;;;11.60;9.40;;;;;;;;;;6141680;23;20380;-92
2023/06/09 05:04:37;;;;;;;11.50;10.00;;;;;;;;;;6139300;23;20415;-92
2023/06/09 05:07:04;;;;;;;10.77;9.67;;;;;;;;;;6139834;23;20384;-92
2023/06/09 05:09:30;;;;;;;9.67;8.67;;;;;;;;;;6139993;23;20388;-92
2023/06/09 05:11:56;;;;;;;11.30;8.03;;;;;;;;;;6142069;23;20388;-92
2023/06/09 05:14:22;;;;;;;11.97;9.80;;;;;;;;;;6164130;23;20412;-92
2023/06/09 05:16:49;;;;;;;10.20;9.10;;;;;;;;;;6138914;23;20406;-91
2023/06/09 05:19:15;;;;;;;10.67;9.50;;;;;;;;;;6139252;23;20636;-91
2023/06/09 05:21:45;;;;;;;11.10;9.90;;;;;;;;;;6142143;23;20500;-92
2023/06/09 05:24:11;;;;;;;14.90;10.27;;;;;;;;;;6139481;23;20380;-92
2023/06/09 05:26:37;;;;;;;9.23;8.30;;;;;;;;;;6140834;23;20466;-92
2023/06/09 05:29:03;;;;;;;11.70;9.80;;;;;;;;;;6141253;23;20392;-91
2023/06/09 05:31:31;;;;;;;11.27;8.87;;;;;;;;;;6140753;23;20435;-92
2023/06/09 05:33:57;;;;;;;12.57;9.97;;;;;;;;;;6140892;23;20439;-91
2023/06/09 05:36:23;;;;;;;9.60;8.43;;;;;;;;;;6139227;23;20395;-92
2023/06/09 05:38:49;;;;;;;10.87;9.13;;;;;;;;;;6138637;23;20380;-92
2023/06/09 05:41:15;;;;;;;11.37;9.73;;;;;;;;;;6138743;23;20407;-92
2023/06/09 05:43:41;;;;;;;11.20;9.30;;;;;;;;;;6137731;23;20400;-91
2023/06/09 05:46:07;;;;;;;11.70;10.40;;;;;;;;;;6138670;23;20403;-92
2023/06/09 05:48:33;;;;;;;11.90;9.73;;;;;;;;;;6139324;23;20391;-92
2023/06/09 05:51:02;;;;;;;11.77;9.50;;;;;;;;;;6142128;23;20392;-92
2023/06/09 05:53:29;;;;;;;11.63;10.27;;;;;;;;;;6142982;23;20384;-92
2023/06/09 05:55:58;;;;;;;11.20;9.90;;;;;;;;;;6140477;23;20929;-92
2023/06/09 05:58:27;;;;;;;10.97;9.87;;;;;;;;;;6141813;23;20470;-92
2023/06/09 06:00:57;;;;;;;11.93;8.90;;;;;;;;;;6140701;23;20459;-92
2023/06/09 06:03:27;;;;;;;10.70;9.67;;;;;;;;;;6142460;23;20809;-92
2023/06/09 06:05:56;;;;;;;13.73;10.30;;;;;;;;;;6139732;23;20363;-92
2023/06/09 06:08:22;;;;;;;10.60;9.50;;;;;;;;;;6141244;23;20380;-91
2023/06/09 06:10:52;;;;;;;11.00;9.13;;;;;;;;;;6141113;23;20443;-92
2023/06/09 06:13:18;;;;;;;10.43;9.43;;;;;;;;;;6141013;23;20372;-92
2023/06/09 06:15:44;;;;;;;9.90;8.40;;;;;;;;;;6138985;23;20435;-91
2023/06/09 06:18:10;;;;;;;11.27;8.90;;;;;;;;;;6138923;23;20383;-92
2023/06/09 06:20:36;;;;;;;10.53;9.47;;;;;;;;;;6140809;23;20392;-91
2023/06/09 06:23:02;;;;;;;9.63;8.67;;;;;;;;;;6141116;23;20400;-91
2023/06/09 06:25:28;;;;;;;10.27;8.67;;;;;;;;;;6138527;23;20796;-92
2023/06/09 06:27:58;;;;;;;8.93;8.10;;;;;;;;;;6138455;23;20380;-91
2023/06/09 06:30:26;;;;;;;8.97;8.10;;;;;;;;;;6162696;23;20359;-91
2023/06/09 06:32:52;;;;;;;9.90;9.00;;;;;;;;;;6138161;23;20380;-92
2023/06/09 06:35:28;;;;;;;9.40;8.50;;;;;;;;;;6138682;23;20450;-91
2023/06/09 06:37:54;;;;;;;9.47;8.37;;;;;;;;;;6140187;23;20398;-92
2023/06/09 06:40:21;;;;;;;9.13;8.23;;;;;;;;;;6139147;23;20384;-91
2023/06/09 06:42:47;;;;;;;11.27;9.40;;;;;;;;;;6139473;23;20923;-92
2023/06/09 06:45:13;;;;;;;10.20;8.73;;;;;;;;;;6137734;23;20403;-92
2023/06/09 06:47:43;;;;;;;9.40;8.43;;;;;;;;;;6137585;23;20400;-92
2023/06/09 06:50:09;;;;;;;8.23;7.43;;;;;;;;;;6137527;23;20860;-92
2023/06/09 06:52:36;;;;;;;8.97;8.07;;;;;;;;;;6137534;23;20419;-92
2023/06/09 06:55:02;;;;;;;9.27;7.77;;;;;;;;;;6138122;23;20428;-91
2023/06/09 06:57:28;;;;;;;8.83;7.93;;;;;;;;;;6167202;23;20364;-92
2023/06/09 06:59:54;;;;;;;9.87;8.40;;;;;;;;;;6140808;23;20387;-93
2023/06/09 07:02:20;;;;;;;9.83;7.30;;;;;;;;;;6141654;23;20371;-93
2023/06/09 07:04:46;;;;;;;9.30;8.20;;;;;;;;;;6139889;23;20360;-91
2023/06/09 07:07:15;;;;;;;8.33;7.53;;;;;;;;;;6139116;23;20961;-91
2023/06/09 07:09:41;;;;;;;6.80;6.10;;;;;;;;;;6138871;23;20391;-91
2023/06/09 07:12:07;;;;;;;13.60;7.60;;;;;;;;;;6140728;23;20883;-92
2023/06/09 07:14:34;;;;;;;8.00;7.03;;;;;;;;;;6140838;23;20751;-91
2023/06/09 07:17:00;;;;;;;7.80;7.00;;;;;;;;;;6139072;23;20403;-91
2023/06/09 07:19:26;;;;;;;8.03;6.97;;;;;;;;;;6139686;23;20387;-91
2023/06/09 07:21:52;;;;;;;7.90;7.10;;;;;;;;;;6139038;23;20465;-92
2023/06/09 07:24:18;;;;;;;6.93;6.23;;;;;;;;;;6138713;23;20392;-91
2023/06/09 07:26:45;;;;;;;7.60;5.50;;;;;;;;;;6138024;23;20475;-92
2023/06/09 07:29:16;;;;;;;6.93;6.10;;;;;;;;;;6138525;23;20390;-92
2023/06/09 07:31:42;;;;;;;6.43;5.83;;;;;;;;;;6141436;23;20408;-92
2023/06/09 07:34:09;;;;;;;7.77;6.60;;;;;;;;;;6166713;23;20423;-91
2023/06/09 07:36:37;;;;;;;7.60;6.80;;;;;;;;;;6140686;23;20396;-92
2023/06/09 07:39:04;;;;;;;7.33;6.57;;;;;;;;;;6140950;23;20797;-92
2023/06/09 07:41:30;;;;;;;7.67;6.77;;;;;;;;;;6140864;23;20415;-91
2023/06/09 07:43:57;;;;;;;7.17;5.80;;;;;;;;;;6143425;23;20384;-92
2023/06/09 07:46:23;;;;;;;7.23;5.97;;;;;;;;;;6140548;23;20491;-92
2023/06/09 07:48:49;;;;;;;9.53;6.07;;;;;;;;;;6139158;23;20386;-91
2023/06/09 07:51:16;;;;;;;6.97;6.27;;;;;;;;;;6138910;23;20407;-92
2023/06/09 07:53:42;;;;;;;7.10;6.40;;;;;;;;;;6138777;23;20376;-90
2023/06/09 07:56:08;;;;;;;7.20;5.40;;;;;;;;;;6138834;23;20421;-92
2023/06/09 07:58:36;;;;;;;6.07;5.43;;;;;;;;;;6138515;23;20372;-92
2023/06/09 08:01:05;;;;;;;5.60;5.03;;;;;;;;;;6139436;23;20384;-92
2023/06/09 08:03:34;;;;;;;6.40;5.70;;;;;;;;;;6141627;23;20368;-92
2023/06/09 08:06:01;;;;;;;6.73;6.00;;;;;;;;;;6141454;23;20384;-91
2023/06/09 08:08:31;;;;;;;6.03;5.43;;;;;;;;;;6140266;23;20392;-91
2023/06/09 08:10:58;;;;;;;6.60;6.00;;;;;;;;;;6164309;23;20825;-92
2023/06/09 08:13:24;;;;;;;6.47;5.67;;;;;;;;;;6140850;23;20387;-92
2023/06/09 08:15:50;;;;;;;6.10;5.60;;;;;;;;;;6137871;23;20388;-91
2023/06/09 08:18:16;;;;;;;6.80;6.20;;;;;;;;;;6162007;23;20745;-92
2023/06/09 08:20:42;;;;;;;6.20;5.60;;;;;;;;;;6135940;23;21130;-92
2023/06/09 08:23:08;;;;;;;6.80;6.10;;;;;;;;;;6138024;23;20395;-92
2023/06/09 08:25:35;;;;;;;6.30;5.70;;;;;;;;;;6138060;23;20384;-91
2023/06/09 08:28:04;;;;;;;6.20;5.33;;;;;;;;;;6137964;23;20387;-92
2023/06/09 08:30:31;;;;;;;6.27;5.77;;;;;;;;;;6139400;23;20438;-92
2023/06/09 08:32:57;;;;;;;6.70;6.00;;;;;;;;;;6140634;23;20419;-93
2023/06/09 08:35:23;;;;;;;8.07;6.83;;;;;;;;;;6137597;23;20451;-92
2023/06/09 08:37:50;;;;;;;7.50;6.70;;;;;;;;;;6139160;23;20471;-92
2023/06/09 08:40:16;;;;;;;10.30;7.07;;;;;;;;;;6139996;23;20407;-92
2023/06/09 08:42:42;;;;;;;6.53;5.93;;;;;;;;;;6139907;23;20384;-90
2023/06/09 08:45:08;;;;;;;7.53;5.80;;;;;;;;;;6134597;23;20387;-92
2023/06/09 08:47:34;;;;;;;7.13;6.40;;;;;;;;;;6136184;23;20399;-92
2023/06/09 08:50:02;;;;;;;6.30;5.70;;;;;;;;;;6136280;23;20467;-90
2023/06/09 08:52:28;;;;;;;6.10;5.50;;;;;;;;;;6137510;23;21012;-91
2023/06/09 08:54:56;;;;;;;5.87;5.30;;;;;;;;;;6137151;23;20755;-91
2023/06/09 08:57:25;;;;;;;6.63;6.03;;;;;;;;;;6136824;23;20395;-91
2023/06/09 08:59:54;;;;;;;6.90;6.20;;;;;;;;;;6137852;23;20470;-91
2023/06/09 09:02:20;;;;;;;6.40;5.80;;;;;;;;;;6164614;23;20752;-92
2023/06/09 09:04:49;;;;;;;5.83;5.27;;;;;;;;;;6168834;23;20376;-90
2023/06/09 09:07:15;;;;;;;8.00;5.97;;;;;;;;;;6139122;23;20376;-91
2023/06/09 09:09:41;;;;;;;5.83;5.30;;;;;;;;;;6139892;23;20387;-91
2023/06/09 09:12:14;;;;;;;6.20;5.60;;;;;;;;;;6139697;23;20717;-91
2023/06/09 09:14:42;;;;;;;5.40;4.93;;;;;;;;;;6141504;23;20427;-93
2023/06/09 09:17:09;;;;;;;6.60;5.17;;;;;;;;;;6162534;23;20404;-91
2023/06/09 09:19:36;;;;;;;4.77;4.37;;;;;;;;;;6137545;23;20376;-93
2023/06/09 09:22:02;;;;;;;5.77;5.17;;;;;;;;;;6137144;23;20395;-93
2023/06/09 09:24:32;;;;;;;5.50;5.00;;;;;;;;;;6139313;23;20391;-93
2023/06/09 09:26:58;;;;;;;5.17;4.67;;;;;;;;;;6140067;23;20407;-92
2023/06/09 09:29:28;;;;;;;6.37;5.77;;;;;;;;;;6140356;23;20384;-92
2023/06/09 09:32:02;;;;;;;6.90;6.10;;;;;;;;;;6138740;23;21056;-93
2023/06/09 09:34:31;;;;;;;6.53;5.27;;;;;;;;;;6144650;23;20422;-92
2023/06/09 09:36:58;;;;;;;4.80;4.23;;;;;;;;;;6139052;23;20382;-92
2023/06/09 09:39:24;;;;;;;5.77;5.27;;;;;;;;;;6141281;23;20367;-93
2023/06/09 09:42:08;;;;;;;6.23;5.40;;;;;;;;;;6139577;23;20386;-93
2023/06/09 09:44:46;;;;;;;6.90;5.43;;;;;;;;;;6073943;23;20383;-92
2023/06/09 09:47:13;;;;;;;5.97;5.13;;;;;;;;;;6050517;23;20498;-92
2023/06/09 09:49:48;;;;;;;5.70;5.07;;;;;;;;;;6049404;23;20371;-93
2023/06/09 09:52:14;;;;;;;5.53;4.97;;;;;;;;;;6076167;23;20363;-92
2023/06/09 09:54:40;;;;;;;6.00;5.40;;;;;;;;;;6047914;23;20737;-92
2023/06/09 09:57:06;;;;;;;5.77;4.50;;;;;;;;;;6022685;23;20443;-93
2023/06/09 09:59:32;;;;;;;5.60;5.03;;;;;;;;;;6022937;23;20379;-93
2023/06/09 10:02:00;;;;;;;4.60;4.20;;;;;;;;;;6025859;23;20456;-92
2023/06/09 10:04:26;;;;;;;6.30;5.70;;;;;;;;;;6027915;23;20442;-92
2023/06/09 10:06:56;;;;;;;5.80;5.03;;;;;;;;;;6025584;23;20896;-92
2023/06/09 10:09:23;;;;;;;5.57;5.03;;;;;;;;;;6045698;23;20407;-91
2023/06/09 10:11:49;;;;;;;6.67;4.80;;;;;;;;;;6052241;23;20390;-93
2023/06/09 10:14:15;;;;;;;4.77;4.27;;;;;;;;;;6053015;23;20429;-92
2023/06/09 10:16:41;;;;;;;5.50;5.00;;;;;;;;;;6051476;23;20375;-93
2023/06/09 10:19:07;;;;;;;4.43;4.03;;;;;;;;;;6052516;23;20782;-92
2023/06/09 10:21:35;;;;;;;4.80;4.30;;;;;;;;;;6052243;23;20487;-92
2023/06/09 10:24:01;;;;;;;5.40;4.90;;;;;;;;;;6053532;23;20442;-92
2023/06/09 10:26:27;;;;;;;5.70;4.90;;;;;;;;;;6050764;23;20891;-92
2023/06/09 10:28:53;;;;;;;5.23;4.63;;;;;;;;;;6050770;23;20917;-92
2023/06/09 10:31:19;;;;;;;5.90;4.90;;;;;;;;;;6067700;23;20443;-93
2023/06/09 10:33:45;;;;;;;5.67;4.60;;;;;;;;;;6141674;23;20432;-92
2023/06/09 10:36:12;;;;;;;5.10;4.40;;;;;;;;;;6143260;23;20440;-93
2023/06/09 10:38:47;;;;;;;4.30;3.80;;;;;;;;;;6169566;23;20356;-93
2023/06/09 10:41:17;;;;;;;4.30;3.90;;;;;;;;;;6168479;23;20341;-92
2023/06/09 10:43:59;;;;;;;4.87;3.47;;;;;;;;;;6144649;23;20372;-92
2023/06/09 10:46:41;;;;;;;4.73;3.63;;;;;;;;;;6167036;23;20376;-92
2023/06/09 10:49:07;;;;;;;3.20;2.80;;;;;;;;;;6167723;23;20893;-91
2023/06/09 10:51:42;;;;;;;3.97;3.40;;;;;;;;;;6142783;23;20427;-91
2023/06/09 10:54:17;;;;;;;4.07;3.67;;;;;;;;;;6143857;23;20443;-92
2023/06/09 10:56:46;;;;;;;4.27;3.40;;;;;;;;;;6167060;23;20352;-91
2023/06/09 10:59:25;;;;;;;4.23;3.63;;;;;;;;;;6142435;23;20387;-92
2023/06/09 11:04:43;;;;;;;3.50;2.87;;;;;;;;;;6194349;23;20372;-93
2023/06/09 11:07:34;;;;;;;5.60;3.10;;;;;;;;;;6165796;23;20371;-91
2023/06/09 11:09:59;;;;;;;4.00;3.20;;;;;;;;;;6170673;23;20364;-93
2023/06/09 11:12:26;;;;;;;3.97;3.50;;;;;;;;;;6164883;23;20482;-93
2023/06/09 11:14:52;;;;;;;4.13;3.73;;;;;;;;;;6168165;23;20628;-93
2023/06/09 11:17:30;;;;;;;5.20;3.90;;;;;;;;;;6140281;23;20463;-93
2023/06/09 11:20:08;;;;;;;4.53;3.20;;;;;;;;;;6142472;23;20391;-93
2023/06/09 11:22:44;;;;;;;4.50;2.90;;;;;;;;;;6164989;23;20914;-93
2023/06/09 11:25:19;;;;;;;3.57;3.17;;;;;;;;;;6167186;23;20379;-92
2023/06/09 11:27:45;;;;;;;5.23;3.60;;;;;;;;;;6166571;23;20376;-93
2023/06/09 11:30:20;;;;;;;4.13;3.50;;;;;;;;;;6167026;23;20767;-93
2023/06/09 11:32:46;;;;;;;4.57;3.53;;;;;;;;;;6170465;23;20379;-93
2023/06/09 11:35:31;;;;;;;3.90;3.50;;;;;;;;;;6167290;23;20421;-92
2023/06/09 11:37:57;;;;;;;4.57;4.13;;;;;;;;;;6166994;23;20931;-92
2023/06/09 11:40:23;;;;;;;3.40;3.10;;;;;;;;;;6169682;23;20368;-93
2023/06/09 11:42:49;;;;;;;4.90;4.07;;;;;;;;;;6141298;23;20396;-92
2023/06/09 11:45:17;;;;;;;4.20;3.30;;;;;;;;;;6142345;23;20471;-91
2023/06/09 11:47:43;;;;;;;3.70;3.10;;;;;;;;;;6166439;23;20448;-92
2023/06/09 11:50:12;;;;;;;3.97;3.53;;;;;;;;;;6142342;23;20372;-92
2023/06/09 11:52:41;;;;;;;4.33;3.30;;;;;;;;;;6078370;23;20626;-93
2023/06/09 11:55:07;;;;;;;3.70;2.90;;;;;;;;;;6077377;23;20510;-93
2023/06/09 11:57:33;;;;;;;3.93;3.50;;;;;;;;;;6053046;23;20707;-93
2023/06/09 12:00:00;;;;;;;3.60;3.17;;;;;;;;;;6053260;23;20530;-92
2023/06/09 12:02:27;;;;;;;6.20;3.23;;;;;;;;;;6077495;23;20479;-92
2023/06/09 12:04:53;;;;;;;3.43;3.13;;;;;;;;;;6053837;23;20382;-92
2023/06/09 12:07:19;;;;;;;3.90;3.50;;;;;;;;;;6053740;23;20496;-92
2023/06/09 12:09:45;;;;;;;3.70;3.23;;;;;;;;;;6055039;23;20566;-93
2023/06/09 12:12:11;;;;;;;3.73;3.43;;;;;;;;;;6053050;23;20409;-93
2023/06/09 12:14:38;;;;;;;5.40;4.37;;;;;;;;;;6057173;23;20429;-92
2023/06/09 12:17:05;;;;;;;4.27;3.70;;;;;;;;;;6054109;23;20374;-92
2023/06/09 12:19:31;;;;;;;4.40;3.70;;;;;;;;;;6053115;23;20406;-92
2023/06/09 12:21:58;;;;;;;3.60;3.30;;;;;;;;;;6052505;23;20397;-93
2023/06/09 12:24:26;;;;;;;4.67;4.17;;;;;;;;;;6126208;23;20408;-92
2023/06/09 12:26:52;;;;;;;4.97;3.73;;;;;;;;;;6140229;23;20431;-92
2023/06/09 12:29:24;;;;;;;4.30;3.37;;;;;;;;;;6140165;23;20383;-92
2023/06/09 12:31:51;;;;;;;4.20;3.77;;;;;;;;;;6142253;23;20412;-92
2023/06/09 12:34:29;;;;;;;4.63;3.00;;;;;;;;;;6166049;23;20416;-92
2023/06/09 12:36:55;;;;;;;4.70;4.10;;;;;;;;;;6140942;23;20395;-92
2023/06/09 12:39:23;;;;;;;4.40;4.00;;;;;;;;;;6141399;23;20376;-92
2023/06/09 12:41:49;;;;;;;5.37;4.20;;;;;;;;;;6140835;23;20455;-92
2023/06/09 12:44:19;;;;;;;3.83;3.30;;;;;;;;;;6140709;23;20388;-93
2023/06/09 12:46:47;;;;;;;3.90;3.20;;;;;;;;;;6164790;23;20411;-92
2023/06/09 12:49:13;;;;;;;3.60;3.30;;;;;;;;;;6141839;23;20406;-92
2023/06/09 12:51:47;;;;;;;3.57;3.27;;;;;;;;;;6141993;23;20377;-92
2023/06/09 12:54:16;;;;;;;3.80;3.50;;;;;;;;;;6142211;23;20862;-92
2023/06/09 12:56:42;;;;;;;3.83;3.33;;;;;;;;;;6166187;23;20376;-93
2023/06/09 12:59:09;;;;;;;3.90;3.50;;;;;;;;;;6141308;23;20379;-91
2023/06/09 13:01:37;;;;;;;4.00;3.27;;;;;;;;;;6140884;23;20391;-92
2023/06/09 13:04:03;;;;;;;3.70;3.40;;;;;;;;;;6142613;23;20380;-90
2023/06/09 13:06:29;;;;;;;4.10;3.30;;;;;;;;;;6143494;23;20431;-92
2023/06/09 13:08:55;;;;;;;3.77;3.37;;;;;;;;;;6138138;23;20376;-91
2023/06/09 13:11:22;;;;;;;3.80;3.40;;;;;;;;;;6140376;23;20970;-92
2023/06/09 13:13:48;;;;;;;3.30;3.00;;;;;;;;;;6140187;23;20438;-92
2023/06/09 13:16:14;;;;;;;3.57;3.27;;;;;;;;;;6141936;23;20434;-92
2023/06/09 13:18:40;;;;;;;3.63;3.33;;;;;;;;;;6139634;23;20391;-92
2023/06/09 13:21:06;;;;;;;4.13;3.73;;;;;;;;;;6143833;23;20368;-91
2023/06/09 13:23:32;;;;;;;6.43;3.63;;;;;;;;;;6140119;23;20387;-92
2023/06/09 13:25:59;;;;;;;4.83;3.90;;;;;;;;;;6139738;23;20368;-92
2023/06/09 13:28:25;;;;;;;3.77;3.37;;;;;;;;;;6138642;23;20380;-92
2023/06/09 13:30:51;;;;;;;3.73;3.43;;;;;;;;;;6139871;23;20828;-92
2023/06/09 13:33:17;;;;;;;4.40;4.00;;;;;;;;;;6136714;23;20395;-93
2023/06/09 13:35:45;;;;;;;3.43;3.13;;;;;;;;;;6139207;23;20462;-93
2023/06/09 13:38:11;;;;;;;4.30;3.90;;;;;;;;;;6140766;23;20464;-92
2023/06/09 13:40:43;;;;;;;3.97;3.67;;;;;;;;;;6139648;23;20792;-93
2023/06/09 13:43:13;;;;;;;4.13;3.73;;;;;;;;;;6115744;23;21002;-92
2023/06/09 13:45:39;;;;;;;4.30;3.60;;;;;;;;;;6140268;23;20387;-91
2023/06/09 13:48:08;;;;;;;4.90;3.43;;;;;;;;;;6140284;23;20875;-92
2023/06/09 13:50:34;;;;;;;4.60;3.90;;;;;;;;;;6138887;23;20395;-92
2023/06/09 13:53:01;;;;;;;4.53;4.13;;;;;;;;;;6137398;23;20380;-92
2023/06/09 13:55:28;;;;;;;4.07;3.70;;;;;;;;;;6144314;23;20420;-91
2023/06/09 13:57:54;;;;;;;3.40;3.10;;;;;;;;;;6140543;23;20745;-92
2023/06/09 14:00:20;;;;;;;4.20;3.83;;;;;;;;;;6140141;23;20380;-93
2023/06/09 14:02:47;;;;;;;4.00;3.60;;;;;;;;;;6140462;23;20423;-92
2023/06/09 14:05:22;;;;;;;4.73;4.10;;;;;;;;;;6140259;23;20392;-93
2023/06/09 14:07:48;;;;;;;3.73;3.33;;;;;;;;;;6163966;23;20390;-92
2023/06/09 14:10:14;;;;;;;3.87;3.47;;;;;;;;;;6140793;23;20989;-94
2023/06/09 14:12:47;;;;;;;4.90;3.70;;;;;;;;;;6140132;23;20445;-92
2023/06/09 14:15:15;;;;;;;6.83;3.60;;;;;;;;;;6142931;23;20503;-93
2023/06/09 14:17:49;;;;;;;6.70;3.20;;;;;;;;;;6165577;23;20820;-93
2023/06/09 14:20:15;;;;;;;5.37;3.60;;;;;;;;;;6143225;23;20365;-94
2023/06/09 14:22:45;;;;;;;3.90;3.50;;;;;;;;;;6140415;23;20379;-92
2023/06/09 14:25:17;;;;;;;3.67;3.07;;;;;;;;;;6142524;23;20392;-92
2023/06/09 14:27:44;;;;;;;3.30;3.00;;;;;;;;;;6147010;23;20356;-92
2023/06/09 14:30:10;;;;;;;4.60;4.20;;;;;;;;;;6142827;23;20388;-92
2023/06/09 14:32:39;;;;;;;4.27;3.10;;;;;;;;;;6139337;23;20372;-91
2023/06/09 14:35:05;;;;;;;4.17;3.77;;;;;;;;;;6166018;23;20400;-92
2023/06/09 14:37:35;;;;;;;3.90;3.50;;;;;;;;;;6165503;23;20375;-93
2023/06/09 14:40:03;;;;;;;6.07;3.57;;;;;;;;;;6139810;23;20391;-93
2023/06/09 14:42:29;;;;;;;4.10;3.60;;;;;;;;;;6149954;23;20375;-92
2023/06/09 14:44:55;;;;;;;3.77;3.17;;;;;;;;;;6140141;23;20787;-91
2023/06/09 14:47:21;;;;;;;3.97;3.60;;;;;;;;;;6142819;23;20396;-92
2023/06/09 14:49:48;;;;;;;5.97;3.50;;;;;;;;;;6140629;23;20891;-92